createdAt,value
2023-03-20T00:00:12.142Z,515.00
2023-03-20T00:01:12.149Z,513.00
2023-03-20T00:02:12.146Z,515.00
2023-03-20T00:03:12.143Z,514.00
2023-03-20T00:04:12.301Z,515.00
2023-03-20T00:05:12.126Z,513.00
2023-03-20T00:06:12.121Z,514.00
2023-03-20T00:07:12.121Z,512.00
2023-03-20T00:08:12.108Z,512.00
2023-03-20T00:09:12.095Z,513.00
2023-03-20T00:10:12.095Z,512.00
2023-03-20T00:11:12.092Z,514.00
2023-03-20T00:12:12.087Z,516.00
2023-03-20T00:13:12.065Z,520.00
2023-03-20T00:14:12.060Z,524.00
2023-03-20T00:15:12.066Z,520.00
2023-03-20T00:16:12.117Z,522.00
2023-03-20T00:17:12.085Z,524.00
2023-03-20T00:18:12.044Z,524.00
2023-03-20T00:19:12.049Z,523.00
2023-03-20T00:20:12.035Z,519.00
2023-03-20T00:21:12.040Z,521.00
2023-03-20T00:22:12.017Z,519.00
2023-03-20T00:23:12.011Z,522.00
2023-03-20T00:24:12.010Z,524.00
2023-03-20T00:25:12.009Z,526.00
2023-03-20T00:26:12.012Z,527.00
2023-03-20T00:27:12.030Z,529.00
2023-03-20T00:28:11.986Z,532.00
2023-03-20T00:29:11.982Z,532.00
2023-03-20T00:30:11.989Z,532.00
2023-03-20T00:31:12.011Z,534.00
2023-03-20T00:32:11.994Z,538.00
2023-03-20T00:33:11.997Z,538.00
2023-03-20T00:34:11.950Z,537.00
2023-03-20T00:35:11.959Z,537.00
2023-03-20T00:36:12.012Z,535.00
2023-03-20T00:37:12.107Z,536.00
2023-03-20T00:38:11.931Z,537.00
2023-03-20T00:39:11.937Z,532.00
2023-03-20T00:40:11.928Z,532.00
2023-03-20T00:41:11.934Z,534.00
2023-03-20T00:42:11.936Z,537.00
2023-03-20T00:43:11.907Z,541.00
2023-03-20T00:44:11.913Z,542.00
2023-03-20T00:45:11.912Z,541.00
2023-03-20T00:46:11.940Z,539.00
2023-03-20T00:47:11.906Z,536.00
2023-03-20T00:48:11.914Z,537.00
2023-03-20T00:49:11.909Z,540.00
2023-03-20T00:50:11.881Z,537.00
2023-03-20T00:51:11.883Z,542.00
2023-03-20T00:52:11.883Z,541.00
2023-03-20T00:53:11.880Z,538.00
2023-03-20T00:54:11.884Z,540.00
2023-03-20T00:55:11.882Z,541.00
2023-03-20T00:56:11.891Z,542.00
2023-03-20T00:57:11.895Z,544.00
2023-03-20T00:58:11.870Z,544.00
2023-03-20T00:59:11.884Z,544.00
2023-03-20T01:00:11.860Z,546.00
2023-03-20T01:01:11.902Z,544.00
2023-03-20T01:02:11.896Z,543.00
2023-03-20T01:03:11.841Z,546.00
2023-03-20T01:04:11.831Z,547.00
2023-03-20T01:05:11.839Z,548.00
2023-03-20T01:06:11.818Z,548.00
2023-03-20T01:07:11.819Z,547.00
2023-03-20T01:08:11.800Z,549.00
2023-03-20T01:09:11.808Z,548.00
2023-03-20T01:10:11.810Z,549.00
2023-03-20T01:11:11.801Z,550.00
2023-03-20T01:12:11.794Z,548.00
2023-03-20T01:13:11.782Z,549.00
2023-03-20T01:14:11.773Z,550.00
2023-03-20T01:15:11.772Z,553.00
2023-03-20T01:16:11.824Z,555.00
2023-03-20T01:17:13.553Z,557.00
2023-03-20T01:18:11.746Z,557.00
2023-03-20T01:19:11.750Z,558.00
2023-03-20T01:20:11.738Z,557.00
2023-03-20T01:21:11.718Z,558.00
2023-03-20T01:22:11.720Z,559.00
2023-03-20T01:23:11.717Z,558.00
2023-03-20T01:24:11.708Z,561.00
2023-03-20T01:25:11.702Z,563.00
2023-03-20T01:26:11.691Z,565.00
2023-03-20T01:27:11.696Z,565.00
2023-03-20T01:28:11.669Z,563.00
2023-03-20T01:29:11.671Z,562.00
2023-03-20T01:30:11.648Z,561.00
2023-03-20T01:31:11.638Z,563.00
2023-03-20T01:32:11.731Z,564.00
2023-03-20T01:33:11.643Z,564.00
2023-03-20T01:34:11.602Z,564.00
2023-03-20T01:35:11.588Z,565.00
2023-03-20T01:36:11.707Z,564.00
2023-03-20T01:37:11.576Z,565.00
2023-03-20T01:38:11.570Z,566.00
2023-03-20T01:39:11.560Z,563.00
2023-03-20T01:40:11.565Z,564.00
2023-03-20T01:41:11.533Z,567.00
2023-03-20T01:42:11.543Z,568.00
2023-03-20T01:43:18.234Z,567.00
2023-03-20T01:44:12.522Z,568.00
2023-03-20T01:45:11.507Z,569.00
2023-03-20T01:46:11.545Z,571.00
2023-03-20T01:47:11.498Z,569.00
2023-03-20T01:48:11.481Z,568.00
2023-03-20T01:49:11.473Z,567.00
2023-03-20T01:50:11.458Z,565.00
2023-03-20T01:51:11.456Z,566.00
2023-03-20T01:52:11.473Z,566.00
2023-03-20T01:53:11.451Z,565.00
2023-03-20T01:54:11.473Z,566.00
2023-03-20T01:55:11.439Z,565.00
2023-03-20T01:56:11.427Z,565.00
2023-03-20T01:57:11.420Z,567.00
2023-03-20T01:58:11.415Z,569.00
2023-03-20T01:59:11.395Z,571.00
2023-03-20T02:00:11.402Z,570.00
2023-03-20T02:01:11.443Z,573.00
2023-03-20T02:02:11.384Z,574.00
2023-03-20T02:03:11.377Z,575.00
2023-03-20T02:04:11.350Z,573.00
2023-03-20T02:05:11.386Z,567.00
2023-03-20T02:06:11.328Z,570.00
2023-03-20T02:07:11.332Z,571.00
2023-03-20T02:08:11.306Z,571.00
2023-03-20T02:09:11.288Z,571.00
2023-03-20T02:10:11.288Z,570.00
2023-03-20T02:11:11.262Z,570.00
2023-03-20T02:12:11.295Z,570.00
2023-03-20T02:13:11.247Z,570.00
2023-03-20T02:14:11.264Z,572.00
2023-03-20T02:15:11.226Z,573.00
2023-03-20T02:16:11.245Z,576.00
2023-03-20T02:17:11.216Z,577.00
2023-03-20T02:18:11.203Z,573.00
2023-03-20T02:19:11.201Z,574.00
2023-03-20T02:20:11.192Z,575.00
2023-03-20T02:21:11.168Z,576.00
2023-03-20T02:22:11.173Z,576.00
2023-03-20T02:23:11.172Z,579.00
2023-03-20T02:24:11.149Z,580.00
2023-03-20T02:25:11.139Z,581.00
2023-03-20T02:26:11.285Z,577.00
2023-03-20T02:27:11.113Z,578.00
2023-03-20T02:28:11.119Z,576.00
2023-03-20T02:29:11.110Z,576.00
2023-03-20T02:30:11.115Z,577.00
2023-03-20T02:31:11.148Z,577.00
2023-03-20T02:32:11.082Z,578.00
2023-03-20T02:33:11.146Z,579.00
2023-03-20T02:34:11.091Z,579.00
2023-03-20T02:35:11.054Z,579.00
2023-03-20T02:36:11.167Z,579.00
2023-03-20T02:37:11.040Z,579.00
2023-03-20T02:38:11.035Z,578.00
2023-03-20T02:39:11.013Z,578.00
2023-03-20T02:40:11.024Z,579.00
2023-03-20T02:41:11.073Z,578.00
2023-03-20T02:42:10.996Z,576.00
2023-03-20T02:43:11.050Z,575.00
2023-03-20T02:44:10.990Z,577.00
2023-03-20T02:45:10.974Z,576.00
2023-03-20T02:46:11.015Z,578.00
2023-03-20T02:47:10.965Z,578.00
2023-03-20T02:48:10.970Z,578.00
2023-03-20T02:49:10.949Z,577.00
2023-03-20T02:50:10.970Z,572.00
2023-03-20T02:51:10.944Z,569.00
2023-03-20T02:52:10.950Z,569.00
2023-03-20T02:53:10.943Z,572.00
2023-03-20T02:54:10.941Z,574.00
2023-03-20T02:55:10.927Z,578.00
2023-03-20T02:56:10.922Z,578.00
2023-03-20T02:57:10.917Z,577.00
2023-03-20T02:58:10.907Z,574.00
2023-03-20T02:59:10.891Z,576.00
2023-03-20T03:00:10.885Z,578.00
2023-03-20T03:01:10.934Z,576.00
2023-03-20T03:02:10.860Z,577.00
2023-03-20T03:03:10.866Z,575.00
2023-03-20T03:04:10.878Z,576.00
2023-03-20T03:05:10.818Z,575.00
2023-03-20T03:06:10.856Z,575.00
2023-03-20T03:07:10.802Z,574.00
2023-03-20T03:08:10.818Z,573.00
2023-03-20T03:09:10.802Z,571.00
2023-03-20T03:10:10.784Z,571.00
2023-03-20T03:11:10.771Z,570.00
2023-03-20T03:12:10.785Z,570.00
2023-03-20T03:13:10.776Z,570.00
2023-03-20T03:14:10.775Z,571.00
2023-03-20T03:15:10.773Z,570.00
2023-03-20T03:16:10.757Z,569.00
2023-03-20T03:17:10.748Z,568.00
2023-03-20T03:18:10.755Z,566.00
2023-03-20T03:19:10.782Z,568.00
2023-03-20T03:20:10.723Z,571.00
2023-03-20T03:21:10.717Z,571.00
2023-03-20T03:22:10.732Z,567.00
2023-03-20T03:23:10.727Z,566.00
2023-03-20T03:24:10.706Z,566.00
2023-03-20T03:25:10.697Z,564.00
2023-03-20T03:26:10.687Z,563.00
2023-03-20T03:27:10.713Z,562.00
2023-03-20T03:28:10.678Z,562.00
2023-03-20T03:29:10.664Z,562.00
2023-03-20T03:30:10.659Z,562.00
2023-03-20T03:31:10.673Z,565.00
2023-03-20T03:32:10.638Z,564.00
2023-03-20T03:33:10.789Z,563.00
2023-03-20T03:34:10.627Z,560.00
2023-03-20T03:35:10.629Z,554.00
2023-03-20T03:36:10.690Z,554.00
2023-03-20T03:37:10.606Z,555.00
2023-03-20T03:38:10.604Z,558.00
2023-03-20T03:39:10.581Z,559.00
2023-03-20T03:40:10.577Z,559.00
2023-03-20T03:41:10.568Z,558.00
2023-03-20T03:42:10.572Z,561.00
2023-03-20T03:43:10.548Z,561.00
2023-03-20T03:44:10.568Z,562.00
2023-03-20T03:45:10.540Z,564.00
2023-03-20T03:46:10.596Z,562.00
2023-03-20T03:47:10.519Z,560.00
2023-03-20T03:48:10.523Z,557.00
2023-03-20T03:49:10.510Z,561.00
2023-03-20T03:50:10.531Z,564.00
2023-03-20T03:51:10.510Z,562.00
2023-03-20T03:52:10.498Z,564.00
2023-03-20T03:53:10.476Z,561.00
2023-03-20T03:54:10.468Z,559.00
2023-03-20T03:55:10.467Z,562.00
2023-03-20T03:56:10.540Z,561.00
2023-03-20T03:57:10.435Z,560.00
2023-03-20T03:58:10.442Z,559.00
2023-03-20T03:59:10.440Z,555.00
2023-03-20T04:00:10.425Z,556.00
2023-03-20T04:01:10.409Z,553.00
2023-03-20T04:02:10.514Z,554.00
2023-03-20T04:03:10.399Z,556.00
2023-03-20T04:04:10.494Z,554.00
2023-03-20T04:05:10.381Z,557.00
2023-03-20T04:06:10.382Z,558.00
2023-03-20T04:07:10.366Z,557.00
2023-03-20T04:08:10.353Z,558.00
2023-03-20T04:09:10.388Z,560.00
2023-03-20T04:10:10.339Z,560.00
2023-03-20T04:11:10.327Z,558.00
2023-03-20T04:12:10.325Z,558.00
2023-03-20T04:13:10.322Z,558.00
2023-03-20T04:14:10.315Z,559.00
2023-03-20T04:15:10.283Z,557.00
2023-03-20T04:16:10.295Z,552.00
2023-03-20T04:17:10.266Z,550.00
2023-03-20T04:18:10.267Z,547.00
2023-03-20T04:19:10.251Z,547.00
2023-03-20T04:20:10.242Z,545.00
2023-03-20T04:21:10.237Z,544.00
2023-03-20T04:22:10.224Z,545.00
2023-03-20T04:23:10.229Z,547.00
2023-03-20T04:24:10.223Z,547.00
2023-03-20T04:25:10.213Z,545.00
2023-03-20T04:26:10.192Z,545.00
2023-03-20T04:27:10.194Z,550.00
2023-03-20T04:28:10.186Z,553.00
2023-03-20T04:29:10.195Z,556.00
2023-03-20T04:30:10.168Z,555.00
2023-03-20T04:31:10.187Z,558.00
2023-03-20T04:32:10.157Z,559.00
2023-03-20T04:33:10.222Z,559.00
2023-03-20T04:34:10.142Z,557.00
2023-03-20T04:35:10.149Z,554.00
2023-03-20T04:36:10.191Z,555.00
2023-03-20T04:37:10.106Z,557.00
2023-03-20T04:38:10.126Z,559.00
2023-03-20T04:39:10.099Z,556.00
2023-03-20T04:40:10.092Z,558.00
2023-03-20T04:41:10.075Z,556.00
2023-03-20T04:42:10.086Z,551.00
2023-03-20T04:43:10.057Z,548.00
2023-03-20T04:44:10.055Z,548.00
2023-03-20T04:45:10.046Z,546.00
2023-03-20T04:46:10.047Z,544.00
2023-03-20T04:47:10.023Z,545.00
2023-03-20T04:48:09.989Z,544.00
2023-03-20T04:49:09.990Z,542.00
2023-03-20T04:50:09.989Z,539.00
2023-03-20T04:51:09.979Z,538.00
2023-03-20T04:52:09.962Z,538.00
2023-03-20T04:53:09.950Z,540.00
2023-03-20T04:54:09.946Z,542.00
2023-03-20T04:55:09.943Z,538.00
2023-03-20T04:56:09.955Z,533.00
2023-03-20T04:57:09.922Z,536.00
2023-03-20T04:58:09.908Z,534.00
2023-03-20T04:59:09.902Z,537.00
2023-03-20T05:00:09.908Z,535.00
2023-03-20T05:01:09.921Z,535.00
2023-03-20T05:02:09.873Z,534.00
2023-03-20T05:03:09.873Z,537.00
2023-03-20T05:04:09.904Z,540.00
2023-03-20T05:05:09.882Z,539.00
2023-03-20T05:06:09.855Z,540.00
2023-03-20T05:07:09.847Z,542.00
2023-03-20T05:08:09.850Z,541.00
2023-03-20T05:09:09.833Z,540.00
2023-03-20T05:10:09.820Z,537.00
2023-03-20T05:11:09.817Z,534.00
2023-03-20T05:12:09.825Z,531.00
2023-03-20T05:13:09.800Z,532.00
2023-03-20T05:14:09.785Z,533.00
2023-03-20T05:15:09.794Z,535.00
2023-03-20T05:16:09.797Z,533.00
2023-03-20T05:17:09.779Z,532.00
2023-03-20T05:18:09.759Z,529.00
2023-03-20T05:19:09.762Z,529.00
2023-03-20T05:20:09.747Z,530.00
2023-03-20T05:21:09.748Z,533.00
2023-03-20T05:22:09.718Z,533.00
2023-03-20T05:23:09.733Z,530.00
2023-03-20T05:24:09.709Z,529.00
2023-03-20T05:25:09.710Z,529.00
2023-03-20T05:26:09.711Z,527.00
2023-03-20T05:27:09.713Z,527.00
2023-03-20T05:28:09.669Z,528.00
2023-03-20T05:29:09.675Z,531.00
2023-03-20T05:30:09.675Z,529.00
2023-03-20T05:31:09.708Z,533.00
2023-03-20T05:32:09.647Z,531.00
2023-03-20T05:33:09.686Z,533.00
2023-03-20T05:34:09.628Z,534.00
2023-03-20T05:35:09.637Z,533.00
2023-03-20T05:36:09.627Z,535.00
2023-03-20T05:37:09.631Z,534.00
2023-03-20T05:38:09.645Z,538.00
2023-03-20T05:39:09.618Z,535.00
2023-03-20T05:40:09.606Z,533.00
2023-03-20T05:41:09.596Z,531.00
2023-03-20T05:42:09.597Z,531.00
2023-03-20T05:43:09.575Z,529.00
2023-03-20T05:44:09.579Z,528.00
2023-03-20T05:45:09.577Z,530.00
2023-03-20T05:46:09.614Z,528.00
2023-03-20T05:47:09.549Z,525.00
2023-03-20T05:48:09.535Z,524.00
2023-03-20T05:49:09.531Z,524.00
2023-03-20T05:50:09.520Z,527.00
2023-03-20T05:51:09.502Z,526.00
2023-03-20T05:52:09.511Z,524.00
2023-03-20T05:53:09.501Z,524.00
2023-03-20T05:54:09.485Z,524.00
2023-03-20T05:55:09.484Z,525.00
2023-03-20T05:56:09.466Z,527.00
2023-03-20T05:57:09.483Z,528.00
2023-03-20T05:58:09.468Z,528.00
2023-03-20T05:59:09.450Z,527.00
2023-03-20T06:00:09.452Z,526.00
2023-03-20T06:01:09.421Z,523.00
2023-03-20T06:02:09.463Z,522.00
2023-03-20T06:03:09.416Z,522.00
2023-03-20T06:04:09.392Z,522.00
2023-03-20T06:05:09.406Z,522.00
2023-03-20T06:06:09.397Z,521.00
2023-03-20T06:07:09.394Z,521.00
2023-03-20T06:08:09.367Z,518.00
2023-03-20T06:09:09.367Z,514.00
2023-03-20T06:10:09.368Z,513.00
2023-03-20T06:11:09.361Z,514.00
2023-03-20T06:12:09.343Z,517.00
2023-03-20T06:13:09.336Z,515.00
2023-03-20T06:14:09.334Z,513.00
2023-03-20T06:15:09.372Z,512.00
2023-03-20T06:16:09.369Z,512.00
2023-03-20T06:17:09.333Z,515.00
2023-03-20T06:18:09.310Z,515.00
2023-03-20T06:19:09.309Z,513.00
2023-03-20T06:20:09.298Z,512.00
2023-03-20T06:21:09.280Z,511.00
2023-03-20T06:22:09.320Z,511.00
2023-03-20T06:23:09.259Z,507.00
2023-03-20T06:24:09.255Z,511.00
2023-03-20T06:25:09.271Z,512.00
2023-03-20T06:26:09.356Z,510.00
2023-03-20T06:27:09.326Z,509.00
2023-03-20T06:28:09.224Z,508.00
2023-03-20T06:29:09.305Z,510.00
2023-03-20T06:30:09.210Z,511.00
2023-03-20T06:31:09.295Z,512.00
2023-03-20T06:32:09.214Z,508.00
2023-03-20T06:33:09.257Z,512.00
2023-03-20T06:34:09.201Z,556.00
2023-03-20T06:35:09.202Z,615.00
2023-03-20T06:36:09.177Z,635.00
2023-03-20T06:37:09.165Z,716.00
2023-03-20T06:38:09.172Z,715.00
2023-03-20T06:39:09.170Z,716.00
2023-03-20T06:40:09.156Z,730.00
2023-03-20T06:41:09.148Z,741.00
2023-03-20T06:42:09.931Z,838.00
2023-03-20T06:43:09.146Z,800.00
2023-03-20T06:44:09.160Z,796.00
2023-03-20T06:45:09.130Z,803.00
2023-03-20T06:46:09.475Z,818.00
2023-03-20T06:47:09.121Z,844.00
2023-03-20T06:48:09.128Z,867.00
2023-03-20T06:49:09.115Z,914.00
2023-03-20T06:50:09.124Z,931.00
2023-03-20T06:51:09.297Z,958.00
2023-03-20T06:52:09.080Z,1013.00
2023-03-20T06:53:09.068Z,1041.00
2023-03-20T06:54:09.853Z,1060.00
2023-03-20T06:55:09.046Z,1082.00
2023-03-20T06:56:09.029Z,1130.00
2023-03-20T06:57:09.008Z,1152.00
2023-03-20T06:58:09.008Z,1175.00
2023-03-20T06:59:08.974Z,1189.00
2023-03-20T07:00:08.961Z,1194.00
2023-03-20T07:01:08.966Z,1206.00
2023-03-20T07:02:09.038Z,1224.00
2023-03-20T07:03:08.906Z,1230.00
2023-03-20T07:04:08.906Z,1242.00
2023-03-20T07:05:08.972Z,1292.00
2023-03-20T07:06:08.916Z,1284.00
2023-03-20T07:07:08.858Z,1291.00
2023-03-20T07:08:08.855Z,1290.00
2023-03-20T07:09:08.980Z,1310.00
2023-03-20T07:10:08.813Z,1327.00
2023-03-20T07:11:08.794Z,1341.00
2023-03-20T07:12:08.909Z,1350.00
2023-03-20T07:13:08.762Z,1353.00
2023-03-20T07:14:08.735Z,1362.00
2023-03-20T07:15:08.782Z,1365.00
2023-03-20T07:16:08.726Z,1378.00
2023-03-20T07:17:08.686Z,1392.00
2023-03-20T07:18:08.663Z,1394.00
2023-03-20T07:19:08.631Z,1393.00
2023-03-20T07:20:08.613Z,1394.00
2023-03-20T07:21:08.630Z,1400.00
2023-03-20T07:22:08.563Z,1417.00
2023-03-20T07:23:08.560Z,1426.00
2023-03-20T07:24:08.565Z,1440.00
2023-03-20T07:25:08.507Z,1468.00
2023-03-20T07:26:08.511Z,1477.00
2023-03-20T07:27:08.471Z,1467.00
2023-03-20T07:28:08.435Z,1478.00
2023-03-20T07:29:08.431Z,1478.00
2023-03-20T07:30:08.395Z,1484.00
2023-03-20T07:31:08.464Z,1499.00
2023-03-20T07:32:08.340Z,1506.00
2023-03-20T07:33:08.341Z,1521.00
2023-03-20T07:34:08.311Z,1523.00
2023-03-20T07:35:08.312Z,1538.00
2023-03-20T07:36:08.295Z,1551.00
2023-03-20T07:37:08.248Z,1576.00
2023-03-20T07:38:08.216Z,1584.00
2023-03-20T07:39:08.177Z,1587.00
2023-03-20T07:40:08.145Z,1578.00
2023-03-20T07:41:08.149Z,1598.00
2023-03-20T07:42:08.111Z,1728.00
2023-03-20T07:43:08.052Z,1748.00
2023-03-20T07:44:08.062Z,1766.00
2023-03-20T07:45:08.018Z,1771.00
2023-03-20T07:46:08.095Z,1619.00
2023-03-20T07:47:07.987Z,1619.00
2023-03-20T07:48:08.038Z,1632.00
2023-03-20T07:49:07.930Z,1629.00
2023-03-20T07:50:08.461Z,1630.00
2023-03-20T07:51:07.941Z,1674.00
2023-03-20T07:52:07.892Z,1689.00
2023-03-20T07:53:07.861Z,1699.00
2023-03-20T08:18:07.084Z,1918.00
2023-03-20T08:24:06.897Z,1967.00
2023-03-20T09:13:25.336Z,1109.00
2023-03-20T09:14:07.814Z,1124.00
2023-03-20T09:15:06.829Z,1141.00
2023-03-20T09:16:06.927Z,1175.00
2023-03-20T09:17:06.773Z,1196.00
2023-03-20T09:18:06.716Z,1209.00
2023-03-20T09:19:06.706Z,1218.00
2023-03-20T09:20:06.672Z,1225.00
2023-03-20T09:21:06.620Z,1241.00
2023-03-20T09:22:06.603Z,1269.00
2023-03-20T09:23:06.566Z,1307.00
2023-03-20T09:24:06.555Z,1314.00
2023-03-20T09:25:06.502Z,1342.00
2023-03-20T09:26:06.463Z,1367.00
2023-03-20T09:27:07.998Z,1372.00
2023-03-20T09:28:06.409Z,1377.00
2023-03-20T09:29:06.379Z,1396.00
2023-03-20T09:30:06.348Z,1406.00
2023-03-20T09:31:06.316Z,1510.00
2023-03-20T09:32:06.307Z,1511.00
2023-03-20T09:33:06.285Z,1419.00
2023-03-20T09:34:06.216Z,1368.00
2023-03-20T09:35:06.176Z,1364.00
2023-03-20T09:36:06.211Z,1369.00
2023-03-20T09:37:06.116Z,1364.00
2023-03-20T09:38:06.071Z,1329.00
2023-03-20T09:39:06.043Z,1280.00
2023-03-20T09:40:06.016Z,1264.00
2023-03-20T09:41:06.020Z,1239.00
2023-03-20T09:42:05.952Z,1218.00
2023-03-20T09:43:05.996Z,1188.00
2023-03-20T09:44:05.926Z,1154.00
2023-03-20T09:45:05.889Z,1162.00
2023-03-20T09:46:05.888Z,1176.00
2023-03-20T09:47:19.179Z,1162.00
2023-03-20T09:48:06.843Z,1110.00
2023-03-20T09:49:05.772Z,1097.00
2023-03-20T09:50:05.756Z,1095.00
2023-03-20T09:51:05.711Z,1089.00
2023-03-20T09:52:05.677Z,1079.00
2023-03-20T09:53:05.662Z,1042.00
2023-03-20T09:54:05.613Z,1023.00
2023-03-20T09:55:05.598Z,1009.00
2023-03-20T09:56:05.586Z,991.00
2023-03-20T09:57:05.624Z,947.00
2023-03-20T09:58:05.515Z,937.00
2023-03-20T09:59:05.473Z,934.00
2023-03-20T10:00:05.450Z,923.00
2023-03-20T10:01:05.401Z,904.00
2023-03-20T10:02:05.436Z,900.00
2023-03-20T10:03:05.352Z,900.00
2023-03-20T10:04:05.376Z,896.00
2023-03-20T10:05:05.364Z,887.00
2023-03-20T10:06:05.290Z,869.00
2023-03-20T10:07:05.255Z,865.00
2023-03-20T10:08:05.551Z,850.00
2023-03-20T10:09:05.196Z,843.00
2023-03-20T10:10:05.153Z,838.00
2023-03-20T10:11:05.174Z,837.00
2023-03-20T10:12:05.088Z,830.00
2023-03-20T10:13:05.111Z,820.00
2023-03-20T10:14:05.045Z,813.00
2023-03-20T10:15:05.020Z,797.00
2023-03-20T10:16:05.029Z,795.00
2023-03-20T10:17:04.954Z,797.00
2023-03-20T10:18:04.943Z,794.00
2023-03-20T10:19:04.882Z,796.00
2023-03-20T10:20:04.876Z,796.00
2023-03-20T10:21:04.835Z,791.00
2023-03-20T10:22:04.873Z,790.00
2023-03-20T10:23:04.947Z,790.00
2023-03-20T10:24:04.700Z,789.00
2023-03-20T10:25:04.717Z,784.00
2023-03-20T10:26:04.638Z,781.00
2023-03-20T10:27:04.612Z,779.00
2023-03-20T10:28:04.588Z,774.00
2023-03-20T10:29:04.584Z,769.00
2023-03-20T10:30:04.524Z,762.00
2023-03-20T10:31:04.525Z,756.00
2023-03-20T10:32:04.459Z,753.00
2023-03-20T10:33:04.458Z,748.00
2023-03-20T10:34:04.375Z,742.00
2023-03-20T10:35:04.344Z,737.00
2023-03-20T10:36:04.358Z,732.00
2023-03-20T10:37:04.281Z,732.00
2023-03-20T10:38:04.246Z,730.00
2023-03-20T10:39:04.294Z,729.00
2023-03-20T10:40:05.186Z,723.00
2023-03-20T10:41:04.167Z,720.00
2023-03-20T10:42:04.118Z,719.00
2023-03-20T10:43:04.083Z,720.00
2023-03-20T10:44:03.996Z,722.00
2023-03-20T10:45:03.936Z,729.00
2023-03-20T10:46:03.973Z,883.00
2023-03-20T10:47:04.139Z,881.00
2023-03-20T10:48:03.845Z,939.00
2023-03-20T10:49:03.805Z,877.00
2023-03-20T10:50:03.734Z,894.00
2023-03-20T10:51:03.699Z,907.00
2023-03-20T10:52:03.668Z,983.00
2023-03-20T10:53:03.711Z,982.00
2023-03-20T10:54:03.579Z,1005.00
2023-03-20T10:55:03.536Z,1043.00
2023-03-20T10:56:03.491Z,1016.00
2023-03-20T10:57:03.449Z,1007.00
2023-03-20T10:58:03.394Z,1002.00
2023-03-20T10:59:03.360Z,996.00
2023-03-20T11:00:03.332Z,999.00
2023-03-20T11:01:03.319Z,993.00
2023-03-20T11:02:03.207Z,1000.00
2023-03-20T11:03:03.220Z,993.00
2023-03-20T11:04:03.187Z,988.00
2023-03-20T11:05:03.066Z,971.00
2023-03-20T11:06:09.773Z,972.00
2023-03-20T11:07:03.969Z,968.00
2023-03-20T11:08:02.926Z,970.00
2023-03-20T11:09:02.866Z,971.00
2023-03-20T11:10:02.813Z,968.00
2023-03-20T11:11:02.949Z,960.00
2023-03-20T11:12:02.721Z,961.00
2023-03-20T11:13:02.681Z,962.00
2023-03-20T11:14:02.619Z,956.00
2023-03-20T11:15:02.566Z,953.00
2023-03-20T11:16:02.650Z,935.00
2023-03-20T11:17:02.555Z,920.00
2023-03-20T11:18:02.419Z,901.00
2023-03-20T11:19:05.452Z,912.00
2023-03-20T11:20:02.317Z,915.00
2023-03-20T11:21:02.283Z,920.00
2023-03-20T11:22:02.519Z,923.00
2023-03-20T11:23:02.188Z,925.00
2023-03-20T11:24:02.427Z,925.00
2023-03-20T11:25:02.124Z,926.00
2023-03-20T11:26:02.194Z,939.00
2023-03-20T11:32:47.270Z,947.00
2023-03-20T11:33:26.048Z,941.00
2023-03-20T11:34:26.034Z,940.00
2023-03-20T11:35:26.063Z,941.00
2023-03-20T11:36:28.017Z,1015.00
2023-03-20T11:37:26.021Z,1042.00
2023-03-20T11:38:25.957Z,1062.00
2023-03-20T11:39:25.921Z,1074.00
2023-03-20T11:40:25.955Z,1076.00
2023-03-20T11:41:25.883Z,1082.00
2023-03-20T11:42:25.933Z,1094.00
2023-03-20T11:43:25.874Z,1136.00
2023-03-20T11:44:25.818Z,1163.00
2023-03-20T11:45:25.771Z,1173.00
2023-03-20T11:46:25.800Z,1208.00
2023-03-20T11:47:25.697Z,1208.00
2023-03-20T11:48:25.666Z,1217.00
2023-03-20T11:49:25.637Z,1277.00
2023-03-20T11:50:25.597Z,1263.00
2023-03-20T11:51:25.558Z,1273.00
2023-03-20T11:52:25.527Z,1280.00
2023-03-20T11:53:25.493Z,1323.00
2023-03-20T11:54:25.463Z,1316.00
2023-03-20T11:55:25.429Z,1323.00
2023-03-20T11:56:25.398Z,1346.00
2023-03-20T11:57:25.362Z,1357.00
2023-03-20T11:58:25.337Z,1363.00
2023-03-20T11:59:25.304Z,1372.00
2023-03-20T12:00:25.273Z,1381.00
2023-03-20T12:01:25.240Z,1388.00
2023-03-20T12:02:25.235Z,1397.00
2023-03-20T12:03:25.201Z,1403.00
2023-03-20T12:04:25.155Z,1407.00
2023-03-20T12:05:25.114Z,1451.00
2023-03-20T12:06:25.760Z,1502.00
2023-03-20T12:07:25.042Z,1506.00
2023-03-20T12:08:25.011Z,1516.00
2023-03-20T12:09:24.978Z,1516.00
2023-03-20T12:10:24.959Z,1512.00
2023-03-20T12:11:25.092Z,1505.00
2023-03-20T12:12:24.894Z,1504.00
2023-03-20T12:13:24.925Z,1515.00
2023-03-20T12:14:24.831Z,1524.00
2023-03-20T12:15:24.804Z,1535.00
2023-03-20T12:16:24.834Z,1536.00
2023-03-20T12:17:24.738Z,1560.00
2023-03-20T12:18:24.708Z,1564.00
2023-03-20T12:19:24.668Z,1562.00
2023-03-20T12:20:24.653Z,1560.00
2023-03-20T12:21:24.667Z,1571.00
2023-03-20T12:22:24.595Z,1585.00
2023-03-20T12:23:24.562Z,1586.00
2023-03-20T12:24:24.534Z,1593.00
2023-03-20T12:25:24.506Z,1611.00
2023-03-20T12:26:24.464Z,1749.00
2023-03-20T12:27:24.435Z,1759.00
2023-03-20T12:28:24.395Z,1770.00
2023-03-20T12:29:24.456Z,1770.00
2023-03-20T12:30:24.380Z,1757.00
2023-03-20T12:31:24.374Z,1757.00
2023-03-20T12:32:24.285Z,1760.00
2023-03-20T12:33:24.255Z,1761.00
2023-03-20T12:34:24.300Z,1650.00
2023-03-20T12:35:24.208Z,1648.00
2023-03-20T12:36:24.178Z,1629.00
2023-03-20T12:37:24.166Z,1587.00
2023-03-20T12:38:24.156Z,1564.00
2023-03-20T12:39:24.115Z,1540.00
2023-03-20T12:40:26.135Z,1494.00
2023-03-20T12:41:24.057Z,1466.00
2023-03-20T12:42:24.018Z,1432.00
2023-03-20T12:43:23.987Z,1404.00
2023-03-20T12:44:23.980Z,1366.00
2023-03-20T12:45:23.944Z,1359.00
2023-03-20T12:46:23.969Z,1350.00
2023-03-20T12:47:23.901Z,1333.00
2023-03-20T12:48:23.892Z,1312.00
2023-03-20T12:49:23.881Z,1295.00
2023-03-20T12:50:23.868Z,1280.00
2023-03-20T12:51:23.820Z,1265.00
2023-03-20T12:52:23.792Z,1208.00
2023-03-20T12:53:23.805Z,1211.00
2023-03-20T12:54:23.764Z,1194.00
2023-03-20T12:55:23.725Z,1188.00
2023-03-20T12:56:23.731Z,1179.00
2023-03-20T12:57:23.702Z,1174.00
2023-03-20T12:58:23.677Z,1164.00
2023-03-20T12:59:23.662Z,1153.00
2023-03-20T13:00:23.650Z,1144.00
2023-03-20T13:01:23.893Z,1141.00
2023-03-20T13:02:23.690Z,1137.00
2023-03-20T13:03:23.640Z,1130.00
2023-03-20T13:04:23.580Z,1132.00
2023-03-20T13:05:23.775Z,1131.00
2023-03-20T13:06:23.534Z,1126.00
2023-03-20T13:07:23.511Z,1129.00
2023-03-20T13:08:23.523Z,1127.00
2023-03-20T13:09:23.475Z,1123.00
2023-03-20T13:10:23.523Z,1121.00
2023-03-20T13:11:23.451Z,1117.00
2023-03-20T13:12:23.591Z,1110.00
2023-03-20T13:13:23.420Z,1109.00
2023-03-20T13:14:23.394Z,1109.00
2023-03-20T13:15:23.421Z,1109.00
2023-03-20T13:16:23.579Z,1103.00
2023-03-20T13:17:23.344Z,1100.00
2023-03-20T13:18:23.337Z,1092.00
2023-03-20T13:19:23.357Z,1087.00
2023-03-20T13:20:23.308Z,1084.00
2023-03-20T13:21:23.324Z,1079.00
2023-03-20T13:22:23.324Z,1075.00
2023-03-20T13:23:23.257Z,1073.00
2023-03-20T13:24:23.288Z,1072.00
2023-03-20T13:25:23.223Z,1069.00
2023-03-20T13:26:23.227Z,1067.00
2023-03-20T13:27:23.198Z,1063.00
2023-03-20T13:28:23.163Z,1062.00
2023-03-20T13:29:24.702Z,1062.00
2023-03-20T13:30:23.164Z,1057.00
2023-03-20T13:31:23.188Z,1056.00
2023-03-20T13:32:23.127Z,1053.00
2023-03-20T13:33:23.111Z,1050.00
2023-03-20T13:34:23.093Z,1050.00
2023-03-20T13:35:23.071Z,1047.00
2023-03-20T13:36:23.181Z,1089.00
2023-03-20T13:37:24.481Z,1072.00
2023-03-20T13:38:23.046Z,1061.00
2023-03-20T13:39:23.040Z,1058.00
2023-03-20T13:40:23.014Z,1048.00
2023-03-20T13:41:23.014Z,1043.00
2023-03-20T13:42:23.017Z,1037.00